sensor_id;sensor_type;location;lat;lon;timestamp;P1;durP1;ratioP1;P2;durP2;ratioP2
37891;SDS011;45797;47.466;9.486;2023-04-03T00:01:58;2.13;;;1.00;;
37891;SDS011;45797;47.466;9.486;2023-04-03T00:07:09;3.00;;;1.20;;
37891;SDS011;45797;47.466;9.486;2023-04-03T00:12:11;3.08;;;1.27;;
37891;SDS011;45797;47.466;9.486;2023-04-03T00:17:12;2.38;;;1.02;;
37891;SDS011;45797;47.466;9.486;2023-04-03T00:22:15;2.08;;;1.02;;
37891;SDS011;45797;47.466;9.486;2023-04-03T00:27:15;3.50;;;1.27;;
37891;SDS011;45797;47.466;9.486;2023-04-03T00:32:16;2.83;;;1.20;;
37891;SDS011;45797;47.466;9.486;2023-04-03T00:37:16;3.13;;;1.40;;
37891;SDS011;45797;47.466;9.486;2023-04-03T00:42:18;2.67;;;1.30;;
37891;SDS011;45797;47.466;9.486;2023-04-03T01:08:24;2.55;;;1.60;;
37891;SDS011;45797;47.466;9.486;2023-04-03T01:13:33;2.58;;;1.25;;
37891;SDS011;45797;47.466;9.486;2023-04-03T01:18:51;2.72;;;1.13;;
37891;SDS011;45797;47.466;9.486;2023-04-03T01:29:07;2.22;;;1.23;;
37891;SDS011;45797;47.466;9.486;2023-04-03T01:34:09;5.10;;;1.90;;
37891;SDS011;45797;47.466;9.486;2023-04-03T01:39:10;3.15;;;1.60;;
37891;SDS011;45797;47.466;9.486;2023-04-03T01:44:11;3.08;;;1.67;;
37891;SDS011;45797;47.466;9.486;2023-04-03T01:49:17;4.78;;;1.88;;
37891;SDS011;45797;47.466;9.486;2023-04-03T01:54:20;2.58;;;1.60;;
37891;SDS011;45797;47.466;9.486;2023-04-03T01:59:21;3.60;;;1.90;;
37891;SDS011;45797;47.466;9.486;2023-04-03T02:04:21;3.65;;;1.75;;
37891;SDS011;45797;47.466;9.486;2023-04-03T02:14:27;5.65;;;2.05;;
37891;SDS011;45797;47.466;9.486;2023-04-03T02:24:41;3.47;;;1.83;;
37891;SDS011;45797;47.466;9.486;2023-04-03T02:29:42;3.15;;;1.80;;
37891;SDS011;45797;47.466;9.486;2023-04-03T02:34:44;2.88;;;1.60;;
37891;SDS011;45797;47.466;9.486;2023-04-03T02:39:46;3.95;;;1.83;;
37891;SDS011;45797;47.466;9.486;2023-04-03T02:44:47;3.58;;;1.88;;
37891;SDS011;45797;47.466;9.486;2023-04-03T02:49:48;4.88;;;1.90;;
37891;SDS011;45797;47.466;9.486;2023-04-03T02:59:54;3.25;;;1.83;;
37891;SDS011;45797;47.466;9.486;2023-04-03T03:04:57;2.97;;;1.90;;
37891;SDS011;45797;47.466;9.486;2023-04-03T03:10:03;3.80;;;2.00;;
37891;SDS011;45797;47.466;9.486;2023-04-03T03:15:04;5.10;;;2.50;;
37891;SDS011;45797;47.466;9.486;2023-04-03T03:20:05;4.25;;;1.92;;
37891;SDS011;45797;47.466;9.486;2023-04-03T03:25:15;4.30;;;2.15;;
37891;SDS011;45797;47.466;9.486;2023-04-03T03:30:16;3.50;;;1.65;;
37891;SDS011;45797;47.466;9.486;2023-04-03T03:35:16;3.38;;;2.00;;
37891;SDS011;45797;47.466;9.486;2023-04-03T03:45:28;3.97;;;2.22;;
37891;SDS011;45797;47.466;9.486;2023-04-03T03:50:38;3.65;;;1.92;;
37891;SDS011;45797;47.466;9.486;2023-04-03T03:55:45;3.65;;;1.88;;
37891;SDS011;45797;47.466;9.486;2023-04-03T04:00:46;3.65;;;1.90;;
37891;SDS011;45797;47.466;9.486;2023-04-03T04:05:49;4.82;;;2.15;;
37891;SDS011;45797;47.466;9.486;2023-04-03T04:10:56;4.53;;;2.30;;
37891;SDS011;45797;47.466;9.486;2023-04-03T04:21:04;4.03;;;2.35;;
37891;SDS011;45797;47.466;9.486;2023-04-03T04:31:11;3.88;;;2.35;;
37891;SDS011;45797;47.466;9.486;2023-04-03T04:36:21;5.60;;;2.10;;
37891;SDS011;45797;47.466;9.486;2023-04-03T04:41:32;4.22;;;2.40;;
37891;SDS011;45797;47.466;9.486;2023-04-03T04:46:47;4.55;;;2.40;;
37891;SDS011;45797;47.466;9.486;2023-04-03T04:51:48;6.47;;;2.33;;
37891;SDS011;45797;47.466;9.486;2023-04-03T04:56:49;3.95;;;1.90;;
37891;SDS011;45797;47.466;9.486;2023-04-03T05:06:57;6.05;;;2.42;;
37891;SDS011;45797;47.466;9.486;2023-04-03T05:17:12;4.93;;;2.50;;
37891;SDS011;45797;47.466;9.486;2023-04-03T05:22:17;6.65;;;2.35;;
37891;SDS011;45797;47.466;9.486;2023-04-03T05:27:25;5.75;;;2.03;;
37891;SDS011;45797;47.466;9.486;2023-04-03T05:37:58;3.35;;;1.98;;
37891;SDS011;45797;47.466;9.486;2023-04-03T05:43:01;6.18;;;2.50;;
37891;SDS011;45797;47.466;9.486;2023-04-03T05:48:05;4.65;;;2.17;;
37891;SDS011;45797;47.466;9.486;2023-04-03T05:53:20;4.53;;;2.50;;
37891;SDS011;45797;47.466;9.486;2023-04-03T06:03:44;5.07;;;2.22;;
37891;SDS011;45797;47.466;9.486;2023-04-03T06:08:52;4.85;;;2.60;;
37891;SDS011;45797;47.466;9.486;2023-04-03T06:13:54;5.18;;;2.33;;
37891;SDS011;45797;47.466;9.486;2023-04-03T06:18:56;5.75;;;2.33;;
37891;SDS011;45797;47.466;9.486;2023-04-03T06:23:57;5.22;;;2.28;;
37891;SDS011;45797;47.466;9.486;2023-04-03T06:28:58;4.95;;;2.40;;
37891;SDS011;45797;47.466;9.486;2023-04-03T06:34:01;6.65;;;2.60;;
37891;SDS011;45797;47.466;9.486;2023-04-03T06:39:02;4.03;;;2.20;;
37891;SDS011;45797;47.466;9.486;2023-04-03T06:44:05;4.25;;;2.63;;
37891;SDS011;45797;47.466;9.486;2023-04-03T06:54:23;5.38;;;2.58;;
37891;SDS011;45797;47.466;9.486;2023-04-03T06:59:25;4.95;;;2.47;;
37891;SDS011;45797;47.466;9.486;2023-04-03T07:04:32;4.57;;;2.28;;
37891;SDS011;45797;47.466;9.486;2023-04-03T07:09:35;5.88;;;2.65;;
37891;SDS011;45797;47.466;9.486;2023-04-03T07:25:26;4.93;;;2.33;;
37891;SDS011;45797;47.466;9.486;2023-04-03T07:36:01;6.60;;;2.40;;
37891;SDS011;45797;47.466;9.486;2023-04-03T07:41:02;5.28;;;2.13;;
37891;SDS011;45797;47.466;9.486;2023-04-03T07:46:12;4.15;;;2.20;;
37891;SDS011;45797;47.466;9.486;2023-04-03T07:51:14;5.88;;;2.88;;
37891;SDS011;45797;47.466;9.486;2023-04-03T07:56:25;4.60;;;2.22;;
37891;SDS011;45797;47.466;9.486;2023-04-03T08:01:35;4.38;;;2.50;;
37891;SDS011;45797;47.466;9.486;2023-04-03T08:06:44;4.15;;;2.10;;
37891;SDS011;45797;47.466;9.486;2023-04-03T08:11:46;4.32;;;2.13;;
37891;SDS011;45797;47.466;9.486;2023-04-03T08:16:56;5.10;;;3.00;;
37891;SDS011;45797;47.466;9.486;2023-04-03T08:27:09;3.97;;;1.90;;
37891;SDS011;45797;47.466;9.486;2023-04-03T08:32:11;5.03;;;2.05;;
37891;SDS011;45797;47.466;9.486;2023-04-03T08:37:13;5.65;;;2.58;;
37891;SDS011;45797;47.466;9.486;2023-04-03T08:42:19;4.00;;;1.90;;
37891;SDS011;45797;47.466;9.486;2023-04-03T08:48:00;4.75;;;2.30;;
37891;SDS011;45797;47.466;9.486;2023-04-03T08:59:11;4.55;;;1.88;;
37891;SDS011;45797;47.466;9.486;2023-04-03T09:04:11;3.90;;;1.85;;
37891;SDS011;45797;47.466;9.486;2023-04-03T09:09:22;4.05;;;1.83;;
37891;SDS011;45797;47.466;9.486;2023-04-03T09:24:59;3.25;;;1.80;;
37891;SDS011;45797;47.466;9.486;2023-04-03T09:30:35;3.70;;;1.70;;
37891;SDS011;45797;47.466;9.486;2023-04-03T09:35:31;3.10;;;1.70;;
37891;SDS011;45797;47.466;9.486;2023-04-03T09:40:42;5.65;;;2.30;;
37891;SDS011;45797;47.466;9.486;2023-04-03T09:45:45;4.35;;;2.10;;
37891;SDS011;45797;47.466;9.486;2023-04-03T09:51:04;3.92;;;1.67;;
37891;SDS011;45797;47.466;9.486;2023-04-03T09:56:21;3.25;;;1.70;;
37891;SDS011;45797;47.466;9.486;2023-04-03T10:06:31;4.32;;;1.90;;
37891;SDS011;45797;47.466;9.486;2023-04-03T10:16:59;4.38;;;1.85;;
37891;SDS011;45797;47.466;9.486;2023-04-03T10:38:51;4.43;;;2.22;;
37891;SDS011;45797;47.466;9.486;2023-04-03T10:49:38;4.28;;;1.80;;
37891;SDS011;45797;47.466;9.486;2023-04-03T11:16:45;4.32;;;2.28;;
37891;SDS011;45797;47.466;9.486;2023-04-03T11:21:51;5.53;;;2.08;;
37891;SDS011;45797;47.466;9.486;2023-04-03T11:26:58;3.70;;;1.83;;
37891;SDS011;45797;47.466;9.486;2023-04-03T11:32:25;3.58;;;1.90;;
37891;SDS011;45797;47.466;9.486;2023-04-03T11:37:46;4.00;;;1.90;;
37891;SDS011;45797;47.466;9.486;2023-04-03T11:53:34;3.58;;;1.73;;
37891;SDS011;45797;47.466;9.486;2023-04-03T11:58:36;3.78;;;2.30;;
37891;SDS011;45797;47.466;9.486;2023-04-03T12:08:46;4.07;;;1.70;;
37891;SDS011;45797;47.466;9.486;2023-04-03T12:24:26;3.78;;;1.80;;
37891;SDS011;45797;47.466;9.486;2023-04-03T12:45:41;2.60;;;1.50;;
37891;SDS011;45797;47.466;9.486;2023-04-03T12:50:58;3.92;;;1.50;;
37891;SDS011;45797;47.466;9.486;2023-04-03T13:06:58;2.95;;;1.52;;
37891;SDS011;45797;47.466;9.486;2023-04-03T13:11:59;4.72;;;2.03;;
37891;SDS011;45797;47.466;9.486;2023-04-03T13:22:48;3.08;;;1.52;;
37891;SDS011;45797;47.466;9.486;2023-04-03T13:33:23;3.22;;;1.92;;
37891;SDS011;45797;47.466;9.486;2023-04-03T13:38:27;3.30;;;1.80;;
37891;SDS011;45797;47.466;9.486;2023-04-03T13:43:35;3.70;;;1.90;;
37891;SDS011;45797;47.466;9.486;2023-04-03T13:53:59;4.18;;;1.50;;
37891;SDS011;45797;47.466;9.486;2023-04-03T14:04:47;2.97;;;1.67;;
37891;SDS011;45797;47.466;9.486;2023-04-03T14:09:50;2.78;;;1.50;;
37891;SDS011;45797;47.466;9.486;2023-04-03T14:14:52;4.32;;;1.60;;
37891;SDS011;45797;47.466;9.486;2023-04-03T14:19:55;3.13;;;1.73;;
37891;SDS011;45797;47.466;9.486;2023-04-03T14:24:57;2.95;;;1.45;;
37891;SDS011;45797;47.466;9.486;2023-04-03T14:35:05;4.97;;;1.50;;
37891;SDS011;45797;47.466;9.486;2023-04-03T14:40:07;2.85;;;1.55;;
37891;SDS011;45797;47.466;9.486;2023-04-03T14:50:24;2.80;;;1.45;;
37891;SDS011;45797;47.466;9.486;2023-04-03T14:55:44;2.83;;;1.65;;
37891;SDS011;45797;47.466;9.486;2023-04-03T15:16:44;2.78;;;1.58;;
37891;SDS011;45797;47.466;9.486;2023-04-03T15:21:44;2.90;;;1.35;;
37891;SDS011;45797;47.466;9.486;2023-04-03T15:47:39;3.97;;;1.85;;
37891;SDS011;45797;47.466;9.486;2023-04-03T15:52:39;2.90;;;1.70;;
37891;SDS011;45797;47.466;9.486;2023-04-03T15:57:40;2.53;;;1.45;;
37891;SDS011;45797;47.466;9.486;2023-04-03T16:02:40;2.60;;;1.50;;
37891;SDS011;45797;47.466;9.486;2023-04-03T16:07:53;4.30;;;1.75;;
37891;SDS011;45797;47.466;9.486;2023-04-03T16:12:54;2.90;;;1.67;;
37891;SDS011;45797;47.466;9.486;2023-04-03T16:18:04;3.53;;;1.70;;
37891;SDS011;45797;47.466;9.486;2023-04-03T16:23:06;3.78;;;1.80;;
37891;SDS011;45797;47.466;9.486;2023-04-03T16:28:06;3.35;;;1.52;;
37891;SDS011;45797;47.466;9.486;2023-04-03T16:38:13;3.45;;;1.95;;
37891;SDS011;45797;47.466;9.486;2023-04-03T16:48:20;4.40;;;1.75;;
37891;SDS011;45797;47.466;9.486;2023-04-03T16:53:21;3.88;;;1.90;;
37891;SDS011;45797;47.466;9.486;2023-04-03T16:58:23;3.65;;;1.60;;
37891;SDS011;45797;47.466;9.486;2023-04-03T17:03:23;3.95;;;1.67;;
37891;SDS011;45797;47.466;9.486;2023-04-03T17:08:26;3.22;;;1.75;;
37891;SDS011;45797;47.466;9.486;2023-04-03T17:18:47;4.10;;;1.60;;
37891;SDS011;45797;47.466;9.486;2023-04-03T17:28:59;4.13;;;1.45;;
37891;SDS011;45797;47.466;9.486;2023-04-03T17:34:16;3.28;;;1.83;;
37891;SDS011;45797;47.466;9.486;2023-04-03T17:39:18;4.20;;;1.90;;
37891;SDS011;45797;47.466;9.486;2023-04-03T17:44:18;3.60;;;2.00;;
37891;SDS011;45797;47.466;9.486;2023-04-03T17:49:35;5.53;;;2.47;;
37891;SDS011;45797;47.466;9.486;2023-04-03T17:54:40;5.55;;;2.45;;
37891;SDS011;45797;47.466;9.486;2023-04-03T17:59:48;4.55;;;2.08;;
37891;SDS011;45797;47.466;9.486;2023-04-03T18:04:52;8.25;;;3.50;;
37891;SDS011;45797;47.466;9.486;2023-04-03T18:09:53;5.50;;;2.85;;
37891;SDS011;45797;47.466;9.486;2023-04-03T18:14:58;3.45;;;1.98;;
37891;SDS011;45797;47.466;9.486;2023-04-03T18:20:00;3.60;;;2.03;;
37891;SDS011;45797;47.466;9.486;2023-04-03T18:25:01;5.85;;;1.60;;
37891;SDS011;45797;47.466;9.486;2023-04-03T18:30:06;4.07;;;1.85;;
37891;SDS011;45797;47.466;9.486;2023-04-03T18:35:20;3.05;;;1.55;;
37891;SDS011;45797;47.466;9.486;2023-04-03T18:40:27;5.47;;;2.13;;
37891;SDS011;45797;47.466;9.486;2023-04-03T18:45:41;4.60;;;1.85;;
37891;SDS011;45797;47.466;9.486;2023-04-03T18:50:59;4.35;;;1.90;;
37891;SDS011;45797;47.466;9.486;2023-04-03T18:56:00;3.15;;;1.70;;
37891;SDS011;45797;47.466;9.486;2023-04-03T19:01:01;3.00;;;1.50;;
37891;SDS011;45797;47.466;9.486;2023-04-03T19:06:02;4.00;;;1.90;;
37891;SDS011;45797;47.466;9.486;2023-04-03T19:11:04;5.78;;;1.70;;
37891;SDS011;45797;47.466;9.486;2023-04-03T19:21:19;3.35;;;1.33;;
37891;SDS011;45797;47.466;9.486;2023-04-03T19:26:20;2.42;;;1.42;;
37891;SDS011;45797;47.466;9.486;2023-04-03T19:31:29;2.85;;;1.50;;
37891;SDS011;45797;47.466;9.486;2023-04-03T19:46:50;3.05;;;1.42;;
37891;SDS011;45797;47.466;9.486;2023-04-03T20:02:28;3.63;;;1.40;;
37891;SDS011;45797;47.466;9.486;2023-04-03T20:07:30;2.75;;;1.13;;
37891;SDS011;45797;47.466;9.486;2023-04-03T20:12:31;2.97;;;1.30;;
37891;SDS011;45797;47.466;9.486;2023-04-03T20:17:33;2.88;;;1.38;;
37891;SDS011;45797;47.466;9.486;2023-04-03T20:22:45;2.78;;;1.33;;
37891;SDS011;45797;47.466;9.486;2023-04-03T20:43:14;2.75;;;1.27;;
37891;SDS011;45797;47.466;9.486;2023-04-03T20:48:17;3.13;;;1.25;;
37891;SDS011;45797;47.466;9.486;2023-04-03T20:53:18;2.15;;;1.17;;
37891;SDS011;45797;47.466;9.486;2023-04-03T20:58:19;2.95;;;1.30;;
37891;SDS011;45797;47.466;9.486;2023-04-03T21:03:19;2.22;;;1.10;;
37891;SDS011;45797;47.466;9.486;2023-04-03T21:19:48;2.22;;;1.17;;
37891;SDS011;45797;47.466;9.486;2023-04-03T21:24:55;2.83;;;1.42;;
37891;SDS011;45797;47.466;9.486;2023-04-03T21:29:56;2.75;;;1.30;;
37891;SDS011;45797;47.466;9.486;2023-04-03T21:34:58;3.08;;;1.38;;
37891;SDS011;45797;47.466;9.486;2023-04-03T21:39:58;2.28;;;1.10;;
37891;SDS011;45797;47.466;9.486;2023-04-03T21:50:05;2.13;;;1.15;;
37891;SDS011;45797;47.466;9.486;2023-04-03T21:55:07;1.90;;;1.08;;
37891;SDS011;45797;47.466;9.486;2023-04-03T22:00:08;2.70;;;1.35;;
37891;SDS011;45797;47.466;9.486;2023-04-03T22:05:17;3.25;;;1.38;;
37891;SDS011;45797;47.466;9.486;2023-04-03T22:15:24;2.55;;;1.00;;
37891;SDS011;45797;47.466;9.486;2023-04-03T22:20:24;2.45;;;1.17;;
37891;SDS011;45797;47.466;9.486;2023-04-03T22:25:26;3.35;;;1.17;;
37891;SDS011;45797;47.466;9.486;2023-04-03T22:30:33;2.38;;;1.13;;
37891;SDS011;45797;47.466;9.486;2023-04-03T22:41:00;2.08;;;1.13;;
37891;SDS011;45797;47.466;9.486;2023-04-03T22:46:04;2.35;;;1.10;;
37891;SDS011;45797;47.466;9.486;2023-04-03T22:51:07;1.92;;;1.02;;
37891;SDS011;45797;47.466;9.486;2023-04-03T22:56:12;2.80;;;1.33;;
37891;SDS011;45797;47.466;9.486;2023-04-03T23:01:12;3.20;;;1.20;;
37891;SDS011;45797;47.466;9.486;2023-04-03T23:06:20;2.67;;;1.23;;
37891;SDS011;45797;47.466;9.486;2023-04-03T23:16:25;2.73;;;1.00;;
37891;SDS011;45797;47.466;9.486;2023-04-03T23:21:27;2.33;;;1.10;;
37891;SDS011;45797;47.466;9.486;2023-04-03T23:26:35;2.08;;;0.90;;
37891;SDS011;45797;47.466;9.486;2023-04-03T23:36:47;1.70;;;1.10;;
37891;SDS011;45797;47.466;9.486;2023-04-03T23:41:47;2.50;;;1.00;;
37891;SDS011;45797;47.466;9.486;2023-04-03T23:46:48;2.30;;;1.17;;
37891;SDS011;45797;47.466;9.486;2023-04-03T23:51:49;2.90;;;1.20;;
37891;SDS011;45797;47.466;9.486;2023-04-03T23:56:50;2.40;;;1.30;;
